Seward, AK

1:59 PM AKST on December 17, 2014 (GMT -0900)
Seward | Change Station
CLOSE
Current Station
Airport
Location: Seward,
Elevation: 20 ft
Nearby Weather Stations

Elev 20 ft 60.13 °N, 149.42 °W | Updated 6 minutes ago

Scattered Clouds
Scattered Clouds
34 °F
Feels Like 34 °F
N
0
Wind Variable Wind from North

Today
High -- | Low -- °F
--% Chance of Precip.
Yesterday
High -- | Low -- °F
Precip. -- in
9:58 AM 3:49 PM
Waning Crescent, 19% visible
Pressure 29.54 in
Visibility 9.0 miles
Clouds Scattered Clouds 5000 ft
Scattered Clouds 7500 ft
Dew Point 32 °F
Humidity 92%
Rainfall 0.02 in
Snow Depth Not available.
UV 0 out of 12
Pollen Not available.
Air Quality Not available.
Flu Activity Not available.
METAR PAWD 172253Z AUTO 00000KT 9SM SCT050 SCT075 01/00 A2954 RMK AO2 RAB2157E24 SLP002 P0000 T00110000 TSNO

More Conditions Fewer Conditions

Pressure 29.54 in
Visibility 9.0 miles
Clouds Scattered Clouds 5000 ft
Scattered Clouds 7500 ft
Dew Point 32 °F
Humidity 92%
Rainfall 0.02 in
Snow Depth Not available.
UV 0 out of 12
Pollen Not available.
Air Quality Not available.
Flu Activity Not available.
METAR PAWD 172253Z AUTO 00000KT 9SM SCT050 SCT075 01/00 A2954 RMK AO2 RAB2157E24 SLP002 P0000 T00110000 TSNO

More Conditions Fewer Conditions

10-Day Weather Forecast

Almanac

Astronomy

Dec. 17, 2014 Rise Set
Actual Time
Civil Twilight
Nautical Twilight
Astronomical Twilight
Moon
Length of Visible Light
Length of Day
Tomorrow will be .
, % of the Moon is Illuminated

Today's Extremes

State Highs State Lows

Community

WunderPhotos

Upload Photos

1,778,813 photos uploaded!

WunderBlogs® & News

Nearby

Air Quality

  Air Quality AQ Index Pollutant
Not available.

Snow Depth

Station Depth Elevation

Earthquake Activity

City Distance Mag. Time & Date
Minimum magnitude displayed is 2.5.

Coastal Water Temperatures

Place Temperature

Nearby Weather Stations